Flight Track Log - Related Links

Times and Time Zones

All times are in EDT time to prevent confusion due to time zone crossing. See the DAL1515 flight status page for this flight to view local times or setup timezone preferences in your user account.

Time Position Orientation Groundspeed Altitude Reporting Facility
EDT Latitude Longitude Course Direction KTS MPH feet Rate Location/Type
Sun 08:29:45 PM 33.6500 -84.4833 11° North 199 229 2,800  Level Atlanta TRACON
Sun 08:30:51 PM 33.6833 -84.5667 296° West 273 314 5,300 2,524 Climbing Atlanta TRACON
Sun 08:31:00 PM 33.8735 -84.2068 320° Northwest  Level FlightAware Approximate
Sun 08:31:51 PM 33.7667 -84.5833 351° North 282 325 8,100  Level Atlanta TRACON
Sun 08:32:00 PM 33.9943 -84.2667 North  Level FlightAware Approximate
Sun 08:33:00 PM 34.1330 -84.2667 North  Level FlightAware Approximate
Sun 08:33:51 PM 33.8958 -84.4717 36° Northeast 301 346 11,000  Level Atlanta Center
Sun 08:34:00 PM 34.2718 -84.2667 North  Level FlightAware Approximate
Sun 08:34:51 PM 33.9878 -84.3869 37° Northeast 367 422 13,600  Level Atlanta Center
Sun 08:35:00 PM 34.4081 -84.2368 11° North  Level FlightAware Approximate
Sun 08:36:51 PM 34.2008 -84.3125 16° North 418 481 18,000  Level Atlanta Center
Sun 08:37:51 PM 34.3178 -84.2753 15° North 430 495 20,200 1,900 Climbing Atlanta Center
Sun 08:38:51 PM 34.4369 -84.2478 11° North 430 495 21,800 1,400 Climbing Atlanta Center
Sun 08:39:51 PM 34.5642 -84.2203 10° North 442 509 23,000 1,300 Climbing Atlanta Center
Sun 08:40:51 PM 34.6894 -84.1903 11° North 455 524 24,400 1,350 Climbing Atlanta Center
Sun 08:41:51 PM 34.8272 -84.1578 11° North 472 543 25,700 1,150 Climbing Atlanta Center
Sun 08:42:51 PM 34.9631 -84.1250 11° North 486 559 26,700 1,350 Climbing Atlanta Center
Sun 08:43:51 PM 35.1047 -84.0922 11° North 496 571 28,400 1,150 Climbing Atlanta Center
Sun 08:44:51 PM 35.2447 -84.0592 11° North 502 578 29,000 850 Climbing Atlanta Center
Sun 08:45:51 PM 35.3867 -84.0233 12° North 514 592 30,100 1,100 Climbing Atlanta Center
Sun 08:46:51 PM 35.5347 -83.9878 11° North 525 604 31,200 1,200 Climbing Atlanta Center
Sun 08:47:51 PM 35.6786 -83.9492 12° North 530 610 32,500 900 Climbing Atlanta Center
Sun 08:48:51 PM 35.8206 -83.9158 11° North 524 603 33,000 250 Climbing Atlanta Center
Sun 08:49:51 PM 35.9581 -83.8642 17° North 518 596 33,000  Level Atlanta Center
Sun 08:50:51 PM 36.0892 -83.7817 27° Northeast 511 588 33,000  Level Atlanta Center
Sun 08:51:23 PM 36.1572 -83.7331 30° Northeast 520 598 33,000  Level Indianapolis Center
Sun 08:52:25 PM 36.2861 -83.6500 27° Northeast 522 601 33,000  Level Indianapolis Center
Sun 08:53:26 PM 36.4147 -83.5678 27° Northeast 521 600 33,000  Level Indianapolis Center
Sun 08:54:28 PM 36.5694 -83.4714 27° Northeast 530 610 33,000  Level Indianapolis Center
Sun 08:55:29 PM 36.6922 -83.3775 32° Northeast 523 602 33,000  Level Indianapolis Center
Sun 08:56:31 PM 36.8067 -83.2692 37° Northeast 517 595 33,000  Level Indianapolis Center
Sun 08:57:32 PM 36.9219 -83.1606 37° Northeast 524 603 33,000  Level Indianapolis Center
Sun 08:58:34 PM 37.0372 -83.0492 38° Northeast 514 592 33,000  Level Indianapolis Center
Sun 08:59:35 PM 37.1369 -82.9194 46° Northeast 506 582 33,000  Level Indianapolis Center
Sun 09:00:37 PM 37.2358 -82.7919 46° Northeast 505 581 33,000  Level Indianapolis Center
Sun 09:01:38 PM 37.3367 -82.6647 45° Northeast 509 586 33,000  Level Indianapolis Center
Sun 09:02:40 PM 37.4369 -82.5372 45° Northeast 509 586 33,000  Level Indianapolis Center
Sun 09:03:41 PM 37.5400 -82.4150 43° Northeast 508 585 33,000  Level Indianapolis Center
Sun 09:04:44 PM 37.6397 -82.2869 45° Northeast 511 588 33,000  Level Indianapolis Center
Sun 09:05:45 PM 37.7353 -82.1569 47° Northeast 504 580 33,000  Level Indianapolis Center
Sun 09:06:47 PM 37.8369 -82.0106 49° Northeast 503 579 33,000  Level Indianapolis Center
Sun 09:07:48 PM 37.9292 -81.8753 49° Northeast 509 586 33,000  Level Indianapolis Center
Sun 09:08:49 PM 38.0214 -81.7386 49° Northeast 510 587 33,000  Level Indianapolis Center
Sun 09:09:51 PM 38.1142 -81.6025 49° Northeast 512 589 33,000  Level Indianapolis Center
Sun 09:10:52 PM 38.2047 -81.4661 50° Northeast 508 585 33,000  Level Indianapolis Center
Sun 09:11:54 PM 38.2928 -81.3319 50° Northeast 500 575 33,000  Level Indianapolis Center
Sun 09:12:55 PM 38.3994 -81.1703 50° Northeast 501 577 33,000  Level Indianapolis Center
Sun 09:13:56 PM 38.4875 -81.0367 50° Northeast 497 572 33,000  Level Indianapolis Center
Sun 09:14:58 PM 38.5761 -80.9022 50° Northeast 498 573 33,000  Level Indianapolis Center
Sun 09:15:59 PM 38.6647 -80.7683 50° Northeast 497 572 33,000  Level Indianapolis Center
Sun 09:17:00 PM 38.7539 -80.6314 50° Northeast 501 577 33,000  Level Indianapolis Center
Sun 09:18:02 PM 38.8414 -80.4953 50° Northeast 496 571 33,000  Level Indianapolis Center
Sun 09:19:03 PM 38.9311 -80.3589 50° Northeast 501 577 33,000  Level Indianapolis Center
Sun 09:20:04 PM 39.0383 -80.1967 50° Northeast 497 572 33,000  Level Indianapolis Center
Sun 09:21:05 PM 39.1194 -80.0686 51° Northeast 497 572 33,000  Level Indianapolis Center
Sun 09:22:07 PM 39.2136 -79.9189 51° Northeast 499 574 33,000  Level Indianapolis Center
Sun 09:22:40 PM 39.2686 -79.8431 47° Northeast 493 567 33,000  Level Cleveland Center
Sun 09:23:40 PM 39.3511 -79.7161 50° Northeast 498 573 33,000  Level Cleveland Center
Sun 09:24:40 PM 39.4394 -79.5753 51° Northeast 503 579 33,000  Level Cleveland Center
Sun 09:25:40 PM 39.5256 -79.4339 52° Northeast 503 579 33,000  Level Cleveland Center
Sun 09:26:40 PM 39.6139 -79.2950 50° Northeast 498 573 33,000  Level Cleveland Center
Sun 09:27:40 PM 39.7017 -79.1503 52° Northeast 498 573 33,000 100 Level Cleveland Center
Sun 09:28:40 PM 39.7894 -79.0081 51° Northeast 498 573 33,200 300 Climbing Cleveland Center
Sun 09:29:40 PM 39.8811 -78.8517 53° Northeast 498 573 33,600 450 Climbing Cleveland Center
Sun 09:30:40 PM 39.9622 -78.7194 51° Northeast 504 580 34,100 500 Climbing Cleveland Center
Sun 09:31:40 PM 40.0536 -78.5761 50° Northeast 504 580 34,600 450 Climbing Cleveland Center
Sun 09:32:40 PM 40.1383 -78.4242 54° Northeast 509 586 35,000 117 Climbing Cleveland Center
Sun 09:35:05 PM 40.3183 -78.0536 57° Northeast 507 583 35,000  Level New York Center
Sun 09:36:05 PM 40.3989 -77.8931 57° Northeast 507 583 35,000  Level New York Center
Sun 09:37:05 PM 40.4750 -77.7369 57° Northeast 507 583 35,000  Level New York Center
Sun 09:38:03 PM 40.5447 -77.5775 60° Northeast 501 577 35,000  Level New York Center
Sun 09:39:03 PM 40.6125 -77.4119 62° Northeast 501 577 35,000  Level New York Center
Sun 09:40:03 PM 40.6806 -77.2350 63° Northeast 501 577 35,000  Level New York Center
Sun 09:41:04 PM 40.7542 -77.0719 59° Northeast 501 577 35,000  Level New York Center
Sun 09:42:04 PM 40.8269 -76.9142 59° Northeast 501 577 35,000  Level New York Center
Sun 09:43:05 PM 40.9058 -76.7564 56° Northeast 507 583 35,000  Level New York Center
Sun 09:44:05 PM 41.0006 -76.6136 49° Northeast 513 590 35,000  Level New York Center
Sun 09:45:03 PM 41.0950 -76.4703 49° Northeast 513 590 35,000 -353 Level New York Center
Sun 09:46:04 PM 41.1875 -76.3236 50° Northeast 519 597 34,300 -1,279 Descending New York Center
Sun 09:47:05 PM 41.2800 -76.1711 51° Northeast 525 604 32,400 -1,884 Descending New York Center
Sun 09:48:05 PM 41.3689 -76.0428 47° Northeast 533 613 30,500 -2,184 Descending New York Center
Sun 09:50:31 PM 41.6061 -75.6692 50° Northeast 510 587 24,900 -1,893 Descending Boston Center
Sun 09:51:31 PM 41.6911 -75.5317 50° Northeast 487 560 24,000 -450 Descending Boston Center
Sun 09:52:31 PM 41.7717 -75.4019 50° Northeast 466 536 24,000  Level Boston Center
Sun 09:53:31 PM 41.8503 -75.2719 51° Northeast 455 524 24,000 -750 Level Boston Center
Sun 09:54:31 PM 41.9325 -75.1444 49° Northeast 450 518 22,500 -1,650 Descending Boston Center
Sun 09:55:31 PM 42.0083 -75.0192 51° Northeast 443 510 20,700 -1,750 Descending Boston Center
Sun 09:56:31 PM 42.0797 -74.9100 49° Northeast 435 501 19,000 -850 Descending Boston Center
Sun 09:57:31 PM 42.1553 -74.7814 52° Northeast 435 501 19,000 -950 Level Boston Center
Sun 09:58:31 PM 42.2306 -74.6608 50° Northeast 435 501 17,100 -2,085 Descending Boston Center
Sun 09:59:29 PM 42.3081 -74.5372 50° Northeast 415 478 14,900 -2,050 Descending Boston Center
Sun 10:00:31 PM 42.3728 -74.4242 52° Northeast 403 464 13,000 -1,759 Descending Boston Center
Sun 10:01:42 PM 42.4622 -74.2975 46° Northeast 362 417 11,000 -1,300 Descending Boston Center
Sun 10:02:31 PM 42.5133 -74.2314 44° Northeast 340 391 10,400 -1,101 Descending Boston Center
Sun 10:03:31 PM 42.5856 -74.1433 42° Northeast 306 352 9,000 -1,318 Descending Boston Center
Sun 10:04:43 PM 42.6344 -74.0856 41° Northeast 301 346 7,500 -1,940 Descending Boston Center
Sun 10:05:44 PM 42.7192 -73.9858 41° Northeast 288 331 4,700 -2,754 Descending Boston Center

Login

Don't have an account? Register now (free) for customized features, flight alerts, and more!